Time;durP1;ratioP1;P1;durP2;ratioP2;P2;SDS_P1;SDS_P2;PMS_P1;PMS_P2;Temp;Humidity;BMP_temperature;BMP_pressure;BME280_temperature;BME280_humidity;BME280_pressure;Samples;Min_cycle;Max_cycle;Signal;HPM_P1;HPM_P2
2021/12/28 00:01:17;;;;;;;346.18;142.62;;;;;;;-4.69;67.18;96548.96;1724682;82;25691;-80
2021/12/28 00:03:45;;;;;;;366.50;153.00;;;;;;;-4.73;67.18;96551.06;1724708;81;25781;-80
2021/12/28 00:06:14;;;;;;;407.38;152.02;;;;;;;-4.65;67.22;96547.73;1741632;82;26457;-80
2021/12/28 00:08:42;;;;;;;442.90;168.00;;;;;;;-4.60;67.20;96551.27;1748420;81;25239;-80
2021/12/28 00:11:09;;;;;;;367.02;139.70;;;;;;;-4.56;67.17;96553.95;1754722;80;28271;-79
2021/12/28 00:13:37;;;;;;;368.97;152.70;;;;;;;-4.59;67.10;96552.94;1754485;80;25879;-79
2021/12/28 00:18:35;;;;;;;377.45;153.72;;;;;;;-4.68;67.04;96555.90;1754787;80;26390;-79
2021/12/28 00:21:05;;;;;;;377.27;150.27;;;;;;;-4.68;67.19;96551.11;1753547;80;26305;-80
2021/12/28 00:23:38;;;;;;;369.02;151.75;;;;;;;-4.69;67.15;96554.23;1754797;80;27275;-79
2021/12/28 00:26:09;;;;;;;367.37;145.53;;;;;;;-4.65;67.23;96556.11;1754760;80;25796;-79
2021/12/28 00:28:35;;;;;;;351.70;142.15;;;;;;;-4.60;67.36;96559.17;1752778;80;25717;-81
2021/12/28 00:31:02;;;;;;;367.85;144.02;;;;;;;-4.56;67.29;96550.84;1754832;80;25750;-80
2021/12/28 00:33:29;;;;;;;353.88;145.50;;;;;;;-4.54;67.41;96556.80;1742442;81;25733;-80
2021/12/28 00:35:56;;;;;;;375.30;148.57;;;;;;;-4.50;67.43;96552.94;1693951;83;26688;-80
2021/12/28 00:38:26;;;;;;;360.98;141.30;;;;;;;-4.47;67.44;96555.78;1718462;82;25678;-80
2021/12/28 00:40:57;;;;;;;349.20;142.28;;;;;;;-4.41;67.52;96545.98;1724761;82;25796;-80
2021/12/28 00:43:27;;;;;;;316.53;129.87;;;;;;;-4.35;67.45;96555.46;1725030;82;25826;-80
2021/12/28 00:45:53;;;;;;;315.27;129.97;;;;;;;-4.35;67.42;96549.39;1724757;82;25634;-80
2021/12/28 00:48:21;;;;;;;308.17;127.15;;;;;;;-4.30;67.33;96551.10;1724766;82;27440;-81
2021/12/28 00:50:49;;;;;;;309.62;127.97;;;;;;;-4.29;67.38;96546.18;1724601;81;25768;-80
2021/12/28 00:53:15;;;;;;;293.37;115.55;;;;;;;-4.22;67.31;96544.63;1724751;82;25735;-80
2021/12/28 00:55:42;;;;;;;302.98;125.60;;;;;;;-4.24;67.10;96539.19;1724767;82;26434;-80
2021/12/28 00:58:09;;;;;;;303.88;125.97;;;;;;;-4.24;67.22;96541.82;1724648;82;25695;-80
2021/12/28 01:00:39;;;;;;;289.48;124.92;;;;;;;-4.20;67.23;96546.64;1724772;82;28036;-80
2021/12/28 01:03:08;;;;;;;298.70;126.45;;;;;;;-4.18;67.27;96540.75;1724740;81;25678;-80
2021/12/28 01:05:35;;;;;;;302.10;125.07;;;;;;;-4.14;67.35;96542.63;1724745;82;25691;-80
2021/12/28 01:08:03;;;;;;;298.98;125.40;;;;;;;-4.06;67.29;96544.05;1724740;82;25765;-80
2021/12/28 01:10:35;;;;;;;297.52;119.35;;;;;;;-4.05;67.18;96539.97;1724685;81;25276;-80
2021/12/28 01:13:02;;;;;;;271.05;120.20;;;;;;;-4.07;67.16;96535.80;1724919;82;32181;-80
2021/12/28 01:15:30;;;;;;;302.13;127.15;;;;;;;-4.17;67.16;96539.78;1724682;82;25786;-80
2021/12/28 01:17:57;;;;;;;329.77;137.22;;;;;;;-4.16;67.23;96541.93;1724748;81;25642;-80
2021/12/28 01:20:25;;;;;;;334.10;138.18;;;;;;;-4.14;67.36;96538.67;1724825;82;25798;-79
2021/12/28 01:22:51;;;;;;;338.92;144.13;;;;;;;-4.10;67.33;96539.55;1724799;82;26162;-80
2021/12/28 01:25:19;;;;;;;358.75;149.07;;;;;;;-4.07;67.34;96541.08;1724764;81;27513;-80
2021/12/28 01:27:46;;;;;;;364.50;149.18;;;;;;;-4.08;67.31;96532.33;1724673;81;25769;-80
2021/12/28 01:30:17;;;;;;;351.45;147.90;;;;;;;-4.07;67.30;96533.17;1724860;81;25656;-80
2021/12/28 01:32:44;;;;;;;353.23;149.85;;;;;;;-4.06;67.45;96529.08;1724899;82;25738;-80
2021/12/28 01:35:13;;;;;;;344.77;143.78;;;;;;;-3.97;67.46;96529.18;1720768;82;25732;-80
2021/12/28 01:37:41;;;;;;;346.68;140.95;;;;;;;-3.92;67.39;96524.33;1711698;82;28251;-80
2021/12/28 01:40:12;;;;;;;347.20;140.12;;;;;;;-3.92;67.33;96517.73;1763240;80;26256;-80
2021/12/28 01:43:10;;;;;;;333.67;137.13;;;;;;;-3.88;67.29;96519.95;1763514;80;25786;-80
2021/12/28 01:45:56;;;;;;;320.23;134.47;;;;;;;-3.87;67.18;96515.51;1763212;80;25713;-80
2021/12/28 01:48:27;;;;;;;339.32;139.68;;;;;;;-3.90;67.17;96507.39;1782718;79;26308;-80
2021/12/28 01:50:58;;;;;;;309.35;128.10;;;;;;;-3.89;67.29;96506.91;1794742;79;27424;-80
2021/12/28 01:53:26;;;;;;;278.27;103.90;;;;;;;-3.87;67.35;96497.89;1794878;79;25724;-80
2021/12/28 01:55:56;;;;;;;325.05;131.90;;;;;;;-3.85;67.23;96495.91;1794748;79;25713;-80
2021/12/28 01:58:23;;;;;;;326.00;136.03;;;;;;;-3.93;67.18;96494.98;1794758;79;26295;-80
2021/12/28 02:00:51;;;;;;;330.52;136.07;;;;;;;-3.95;67.29;96498.23;1794711;79;25678;-80
2021/12/28 02:03:22;;;;;;;346.68;136.52;;;;;;;-3.93;67.32;96487.90;1794759;79;28167;-80
2021/12/28 02:05:49;;;;;;;364.05;140.22;;;;;;;-3.85;67.33;96487.16;1794684;79;25247;-80
2021/12/28 02:08:17;;;;;;;339.75;137.15;;;;;;;-3.80;67.39;96482.30;1794712;79;25832;-80
2021/12/28 02:10:47;;;;;;;335.90;138.62;;;;;;;-3.76;67.30;96479.73;1794623;79;25846;-80
2021/12/28 02:13:14;;;;;;;331.15;135.68;;;;;;;-3.73;67.45;96485.52;1794765;79;25748;-80
2021/12/28 02:15:42;;;;;;;340.87;138.65;;;;;;;-3.70;67.43;96478.64;1794754;79;28153;-80
2021/12/28 02:18:13;;;;;;;346.95;137.12;;;;;;;-3.68;67.41;96483.77;1794669;79;25808;-80
2021/12/28 02:20:42;;;;;;;343.40;138.15;;;;;;;-3.79;67.35;96476.88;1794680;79;25715;-80
2021/12/28 02:23:08;;;;;;;345.67;136.62;;;;;;;-3.80;67.45;96477.86;1794741;79;25838;-81
2021/12/28 02:25:36;;;;;;;353.40;141.70;;;;;;;-3.88;67.37;96472.98;1794776;79;25631;-80
2021/12/28 02:28:07;;;;;;;361.75;149.53;;;;;;;-3.91;67.47;96473.26;1794634;79;28088;-80
2021/12/28 02:30:37;;;;;;;379.27;151.35;;;;;;;-3.90;67.64;96473.60;1794675;79;25893;-80
2021/12/28 02:33:05;;;;;;;339.30;142.70;;;;;;;-3.88;67.75;96477.77;1794517;79;25910;-80
2021/12/28 02:35:33;;;;;;;331.95;138.60;;;;;;;-3.87;67.86;96474.16;1797792;78;25732;-80
2021/12/28 02:38:01;;;;;;;350.90;146.62;;;;;;;-3.81;67.91;96479.32;1805979;78;25712;-80
2021/12/28 02:40:30;;;;;;;329.40;134.67;;;;;;;-3.74;67.94;96476.43;1805838;78;27521;-80
2021/12/28 02:42:59;;;;;;;341.17;137.88;;;;;;;-3.81;67.72;96478.00;1796033;79;25915;-80
2021/12/28 02:45:31;;;;;;;341.52;139.37;;;;;;;-3.84;67.83;96480.92;1787096;80;25745;-80
2021/12/28 02:47:59;;;;;;;340.30;138.50;;;;;;;-3.84;67.89;96483.07;1787384;79;25693;-80
2021/12/28 02:50:31;;;;;;;339.63;136.85;;;;;;;-3.84;67.91;96479.60;1787106;79;25715;-80
2021/12/28 02:52:58;;;;;;;340.95;137.60;;;;;;;-3.86;67.95;96478.91;1787205;79;33092;-80
2021/12/28 02:55:29;;;;;;;332.87;136.50;;;;;;;-3.89;67.94;96475.27;1787095;79;25720;-80
2021/12/28 02:58:04;;;;;;;353.07;141.77;;;;;;;-3.95;68.12;96466.12;1787313;79;25721;-80
2021/12/28 03:00:47;;;;;;;326.62;138.03;;;;;;;-3.95;68.02;96463.97;1787182;79;26677;-80
2021/12/28 03:03:18;;;;;;;317.90;136.03;;;;;;;-4.02;68.14;96461.09;1787112;79;25689;-80
2021/12/28 03:05:48;;;;;;;320.80;132.67;;;;;;;-4.00;68.17;96458.66;1786792;79;27403;-80
2021/12/28 03:08:19;;;;;;;322.73;138.77;;;;;;;-3.97;68.16;96456.69;1786938;79;25711;-80
2021/12/28 03:10:48;;;;;;;333.02;137.55;;;;;;;-4.09;68.01;96460.83;1787114;79;25751;-80
2021/12/28 03:13:20;;;;;;;323.62;136.72;;;;;;;-4.12;68.05;96454.55;1786994;79;26443;-80
2021/12/28 03:15:46;;;;;;;330.00;138.92;;;;;;;-4.11;68.14;96454.89;1786307;79;25755;-80
2021/12/28 03:18:13;;;;;;;323.18;132.87;;;;;;;-4.16;68.03;96453.16;1787076;79;28293;-80
2021/12/28 03:20:40;;;;;;;312.08;130.70;;;;;;;-4.24;67.99;96454.38;1787055;79;25791;-80
2021/12/28 03:23:07;;;;;;;325.75;133.65;;;;;;;-4.28;68.10;96455.63;1786992;79;25743;-80
2021/12/28 03:25:33;;;;;;;317.98;133.97;;;;;;;-4.30;67.98;96455.41;1787088;79;25819;-80
2021/12/28 03:28:01;;;;;;;315.12;131.27;;;;;;;-4.36;68.00;96455.03;1787201;79;25294;-80
2021/12/28 03:30:28;;;;;;;316.70;129.85;;;;;;;-4.41;67.98;96451.98;1786701;79;27395;-80
2021/12/28 03:32:55;;;;;;;292.30;123.75;;;;;;;-4.53;67.86;96452.28;1786752;79;25795;-80
2021/12/28 03:35:22;;;;;;;302.98;126.45;;;;;;;-4.66;67.91;96444.68;1786525;79;25859;-80
2021/12/28 03:37:49;;;;;;;303.60;123.95;;;;;;;-4.72;67.90;96447.41;1781274;79;26566;-80
2021/12/28 03:40:17;;;;;;;301.40;125.97;;;;;;;-4.75;68.01;96446.36;1781302;79;25657;-80
2021/12/28 03:42:44;;;;;;;305.27;129.87;;;;;;;-4.82;68.03;96436.52;1781269;79;27370;-80
2021/12/28 03:45:12;;;;;;;312.72;128.50;;;;;;;-4.89;68.10;96436.26;1781181;79;25725;-80
2021/12/28 03:47:39;;;;;;;311.25;131.07;;;;;;;-4.90;68.09;96442.49;1781351;79;25700;-81
2021/12/28 03:50:09;;;;;;;297.57;127.22;;;;;;;-4.90;68.03;96442.49;1781273;79;25765;-80
2021/12/28 03:52:36;;;;;;;298.32;123.33;;;;;;;-4.97;67.93;96440.08;1781250;79;26253;-80
2021/12/28 03:55:05;;;;;;;299.15;124.47;;;;;;;-5.01;67.95;96438.69;1781184;79;27538;-80
2021/12/28 03:57:32;;;;;;;278.90;121.70;;;;;;;-5.05;67.88;96442.55;1781213;79;26378;-80
2021/12/28 03:59:59;;;;;;;308.73;127.65;;;;;;;-5.16;67.71;96436.12;1781166;79;25782;-80
2021/12/28 04:02:25;;;;;;;297.27;123.42;;;;;;;-5.25;67.74;96434.33;1781233;79;26424;-80
2021/12/28 04:04:53;;;;;;;293.05;125.30;;;;;;;-5.31;67.85;96433.58;1781267;79;26346;-81
2021/12/28 04:07:21;;;;;;;292.02;127.92;;;;;;;-5.35;67.96;96431.69;1780993;79;28216;-80
2021/12/28 04:12:19;;;;;;;299.65;126.80;;;;;;;-5.44;67.86;96435.15;1781334;79;26104;-80
2021/12/28 04:14:46;;;;;;;296.52;123.30;;;;;;;-5.55;67.85;96436.08;1781213;79;26175;-81
2021/12/28 04:17:13;;;;;;;312.48;129.15;;;;;;;-5.63;67.83;96437.73;1780951;79;25689;-80
2021/12/28 04:19:40;;;;;;;297.42;124.53;;;;;;;-5.69;67.97;96438.28;1781348;79;27367;-80
2021/12/28 04:22:07;;;;;;;294.30;125.72;;;;;;;-5.75;67.91;96444.90;1781256;79;25836;-80
2021/12/28 04:24:34;;;;;;;299.20;122.25;;;;;;;-5.79;67.97;96447.44;1781193;79;25670;-80
2021/12/28 04:27:01;;;;;;;289.35;121.92;;;;;;;-5.78;68.02;96446.47;1781198;79;25641;-80
2021/12/28 04:29:28;;;;;;;278.83;120.97;;;;;;;-5.81;68.05;96448.08;1781259;79;25672;-80
2021/12/28 04:31:54;;;;;;;276.42;117.33;;;;;;;-5.82;68.00;96445.09;1781190;79;27394;-80
2021/12/28 04:34:21;;;;;;;270.88;114.57;;;;;;;-5.88;67.99;96440.39;1781156;79;26218;-80
2021/12/28 04:36:49;;;;;;;280.00;114.17;;;;;;;-5.90;67.97;96438.38;1780995;79;26260;-80
2021/12/28 04:39:16;;;;;;;276.70;115.45;;;;;;;-5.95;67.93;96439.28;1780889;80;26352;-80
2021/12/28 04:41:44;;;;;;;277.22;114.67;;;;;;;-5.99;67.96;96441.33;1781286;79;26367;-81
2021/12/28 04:44:13;;;;;;;270.65;114.28;;;;;;;-5.99;67.89;96440.02;1781191;79;28187;-81
2021/12/28 04:46:39;;;;;;;264.70;116.37;;;;;;;-6.03;67.86;96449.12;1781138;79;25619;-81
2021/12/28 04:49:06;;;;;;;272.30;116.00;;;;;;;-6.07;67.89;96446.91;1781378;79;25692;-81
2021/12/28 04:51:33;;;;;;;274.15;113.35;;;;;;;-6.09;67.79;96446.20;1781099;79;26598;-80
2021/12/28 04:54:01;;;;;;;262.30;110.28;;;;;;;-6.10;67.90;96445.85;1766043;79;25674;-80
2021/12/28 04:56:28;;;;;;;261.55;112.25;;;;;;;-6.14;67.83;96448.38;1781133;79;28181;-80
2021/12/28 04:58:54;;;;;;;247.30;107.35;;;;;;;-6.22;67.73;96447.27;1781225;80;25298;-80
2021/12/28 05:01:21;;;;;;;241.82;103.65;;;;;;;-6.23;67.74;96446.91;1781230;79;25670;-81
2021/12/28 05:03:47;;;;;;;236.72;100.53;;;;;;;-6.30;67.78;96445.78;1781312;79;26442;-80
2021/12/28 05:06:16;;;;;;;246.43;103.80;;;;;;;-6.33;67.79;96449.14;1781378;79;25650;-80
2021/12/28 05:08:42;;;;;;;252.28;101.87;;;;;;;-6.36;67.89;96448.92;1781357;79;27351;-81
2021/12/28 05:11:09;;;;;;;259.23;107.40;;;;;;;-6.40;67.97;96451.44;1781015;79;25404;-80
2021/12/28 05:13:36;;;;;;;268.73;112.20;;;;;;;-6.44;67.98;96451.38;1781437;79;25747;-81
2021/12/28 05:16:02;;;;;;;275.20;114.52;;;;;;;-6.51;68.02;96446.27;1781102;79;25813;-80
2021/12/28 05:18:29;;;;;;;280.73;120.05;;;;;;;-6.58;68.22;96453.84;1781490;79;25847;-81
2021/12/28 05:20:56;;;;;;;282.92;121.10;;;;;;;-6.59;68.44;96455.28;1781335;79;28015;-80
2021/12/28 05:23:22;;;;;;;287.27;121.22;;;;;;;-6.51;68.60;96449.37;1781346;79;25701;-80
2021/12/28 05:25:49;;;;;;;278.77;119.35;;;;;;;-6.42;68.56;96448.14;1781335;79;25670;-81
2021/12/28 05:28:16;;;;;;;278.40;117.30;;;;;;;-6.41;68.44;96459.48;1781352;79;25713;-80
2021/12/28 05:30:42;;;;;;;255.32;107.07;;;;;;;-6.41;68.49;96456.85;1781397;79;25678;-80
2021/12/28 05:33:09;;;;;;;266.10;107.67;;;;;;;-6.41;68.29;96456.85;1781445;79;27498;-80
2021/12/28 05:35:36;;;;;;;253.12;106.40;;;;;;;-6.45;68.19;96456.27;1781283;80;26022;-81
2021/12/28 05:38:02;;;;;;;251.07;106.97;;;;;;;-6.49;68.12;96454.86;1783808;79;26726;-80
2021/12/28 05:40:29;;;;;;;239.17;104.03;;;;;;;-6.54;67.99;96457.06;1784462;79;25884;-80
2021/12/28 05:42:56;;;;;;;241.90;105.00;;;;;;;-6.52;68.11;96454.30;1784474;79;25664;-80
2021/12/28 05:45:22;;;;;;;248.07;103.83;;;;;;;-6.50;67.95;96453.67;1784468;79;27339;-80
2021/12/28 05:47:49;;;;;;;239.65;105.10;;;;;;;-6.52;67.92;96452.52;1784388;79;26282;-80
2021/12/28 05:50:16;;;;;;;233.82;98.37;;;;;;;-6.58;67.81;96453.02;1784174;79;25755;-80
2021/12/28 05:52:42;;;;;;;233.97;96.35;;;;;;;-6.62;67.79;96452.91;1784344;79;25733;-80
2021/12/28 05:55:09;;;;;;;212.65;93.58;;;;;;;-6.73;67.49;96451.19;1784465;79;25747;-80
2021/12/28 05:57:36;;;;;;;217.72;91.15;;;;;;;-6.81;67.59;96456.26;1784384;79;27308;-80
2021/12/28 06:00:07;;;;;;;217.72;90.32;;;;;;;-6.86;67.67;96461.05;1784277;79;26069;-80
2021/12/28 06:02:34;;;;;;;216.42;89.77;;;;;;;-6.87;67.80;96457.23;1784255;79;25227;-80
2021/12/28 06:05:01;;;;;;;227.87;94.03;;;;;;;-6.86;67.82;96449.72;1784390;79;25757;-80
2021/12/28 06:07:27;;;;;;;225.25;93.00;;;;;;;-6.89;67.72;96451.30;1784432;79;25447;-80
2021/12/28 06:09:56;;;;;;;215.87;89.60;;;;;;;-6.95;67.61;96452.62;1784491;79;28046;-80
2021/12/28 06:12:23;;;;;;;223.85;90.85;;;;;;;-6.96;67.72;96451.80;1784265;79;26505;-80
2021/12/28 06:14:51;;;;;;;223.97;92.57;;;;;;;-7.03;67.54;96448.03;1784384;79;25693;-80
2021/12/28 06:17:18;;;;;;;227.07;91.65;;;;;;;-7.09;67.66;96453.77;1784027;79;25727;-80
2021/12/28 06:19:45;;;;;;;241.15;98.10;;;;;;;-7.10;67.71;96456.03;1784360;79;25325;-81
2021/12/28 06:22:12;;;;;;;232.75;96.95;;;;;;;-7.13;67.77;96452.38;1784495;79;27194;-81
2021/12/28 06:24:39;;;;;;;235.23;97.53;;;;;;;-7.18;67.60;96461.09;1784284;79;26317;-81
2021/12/28 06:27:06;;;;;;;231.43;94.30;;;;;;;-7.23;67.67;96459.30;1784285;80;25652;-80
2021/12/28 06:29:32;;;;;;;230.18;93.80;;;;;;;-7.24;67.79;96457.64;1784102;79;26377;-80
2021/12/28 06:31:59;;;;;;;234.30;94.32;;;;;;;-7.26;67.86;96462.20;1784356;79;25636;-81
2021/12/28 06:34:26;;;;;;;219.00;92.15;;;;;;;-7.35;67.81;96457.69;1784391;79;27571;-80
2021/12/28 06:36:52;;;;;;;288.98;123.22;;;;;;;-7.44;67.87;96461.89;1783229;79;25815;-81
2021/12/28 06:39:19;;;;;;;247.42;103.85;;;;;;;-7.49;68.15;96452.75;1787933;78;25703;-80
2021/12/28 06:41:45;;;;;;;287.68;113.50;;;;;;;-7.43;68.29;96454.38;1785036;79;26460;-81
2021/12/28 06:44:12;;;;;;;301.30;123.50;;;;;;;-7.42;68.26;96453.91;1794900;79;25812;-81
2021/12/28 06:46:39;;;;;;;360.60;147.82;;;;;;;-7.43;68.28;96454.86;1794759;79;27402;-81
2021/12/28 06:49:07;;;;;;;387.93;155.22;;;;;;;-7.40;68.31;96463.80;1794617;79;25690;-81
2021/12/28 06:51:34;;;;;;;358.00;141.03;;;;;;;-7.44;68.40;96461.05;1794664;79;25253;-81
2021/12/28 06:54:01;;;;;;;342.82;134.95;;;;;;;-7.40;68.53;96459.39;1794711;79;25769;-81
2021/12/28 06:56:27;;;;;;;325.68;130.67;;;;;;;-7.34;68.58;96467.22;1794659;79;25653;-81
2021/12/28 06:58:54;;;;;;;331.25;136.37;;;;;;;-7.28;68.53;96471.98;1794721;79;27454;-81
2021/12/28 07:01:22;;;;;;;389.00;155.97;;;;;;;-7.29;68.30;96471.14;1793921;79;25678;-80
2021/12/28 07:03:51;;;;;;;421.03;171.98;;;;;;;-7.31;68.26;96470.43;1790266;79;25673;-81
2021/12/28 07:06:18;;;;;;;431.87;175.18;;;;;;;-7.35;68.25;96470.80;1793977;79;25808;-81
2021/12/28 07:08:45;;;;;;;434.57;168.40;;;;;;;-7.35;68.31;96471.63;1794236;79;25780;-82
2021/12/28 07:11:11;;;;;;;422.40;163.18;;;;;;;-7.34;68.36;96465.91;1794415;79;27605;-81
2021/12/28 07:13:38;;;;;;;403.95;161.12;;;;;;;-7.36;68.32;96463.87;1794400;79;25753;-81
2021/12/28 07:16:05;;;;;;;393.75;161.00;;;;;;;-7.39;68.29;96456.28;1790009;79;25655;-82
2021/12/28 07:18:31;;;;;;;391.55;153.23;;;;;;;-7.39;68.36;96459.74;1794189;79;26231;-81
2021/12/28 07:20:58;;;;;;;375.40;149.47;;;;;;;-7.37;68.35;96463.55;1790256;79;25756;-81
2021/12/28 07:23:25;;;;;;;355.77;143.93;;;;;;;-7.38;68.40;96460.58;1790177;79;27471;-81
2021/12/28 07:25:53;;;;;;;340.87;136.25;;;;;;;-7.39;68.52;96464.16;1794309;79;25259;-81
2021/12/28 07:28:21;;;;;;;347.75;138.28;;;;;;;-7.38;68.61;96461.89;1790059;79;25714;-81
2021/12/28 07:30:48;;;;;;;328.92;134.90;;;;;;;-7.35;68.69;96462.92;1784090;79;26928;-81
2021/12/28 07:33:14;;;;;;;324.10;130.32;;;;;;;-7.32;68.79;96465.30;1777577;79;26357;-81
2021/12/28 07:35:41;;;;;;;327.77;133.40;;;;;;;-7.25;68.83;96471.73;1794440;79;26936;-81
2021/12/28 07:38:07;;;;;;;332.07;138.47;;;;;;;-7.16;68.86;96478.02;1786863;79;25741;-81
2021/12/28 07:40:35;;;;;;;339.68;143.28;;;;;;;-7.08;68.88;96476.90;1744253;79;25731;-81
2021/12/28 07:43:03;;;;;;;349.95;146.85;;;;;;;-6.97;68.99;96470.28;1703189;82;25875;-81
2021/12/28 07:45:29;;;;;;;388.02;166.25;;;;;;;-6.86;68.99;96468.08;1741339;79;26245;-81
2021/12/28 07:47:56;;;;;;;453.27;201.75;;;;;;;-6.73;69.02;96470.04;1702986;82;27540;-81
2021/12/28 07:50:23;;;;;;;404.15;170.43;;;;;;;-6.70;68.98;96473.25;1783250;79;26496;-83
2021/12/28 07:52:52;;;;;;;402.62;173.95;;;;;;;-6.65;68.95;96470.25;1757313;79;25712;-82
2021/12/28 07:55:19;;;;;;;426.40;177.40;;;;;;;-6.59;68.96;96470.55;1741127;81;26391;-82
2021/12/28 07:57:45;;;;;;;403.55;174.35;;;;;;;-6.56;68.94;96469.47;1741276;82;25724;-82
2021/12/28 08:00:16;;;;;;;392.90;174.68;;;;;;;-6.58;68.91;96469.59;1703323;82;27513;-82
2021/12/28 08:02:44;;;;;;;317.83;142.13;;;;;;;-6.56;69.01;96465.53;1741601;79;25824;-82
2021/12/28 08:05:16;;;;;;;409.37;175.15;;;;;;;-6.46;69.14;96473.46;1741223;80;25718;-81
2021/12/28 08:07:43;;;;;;;261.18;112.62;;;;;;;-6.38;69.18;96469.22;1774084;79;25853;-82
2021/12/28 08:10:13;;;;;;;333.65;143.78;;;;;;;-6.25;69.20;96465.90;1763220;80;25905;-82
2021/12/28 08:12:40;;;;;;;341.05;148.05;;;;;;;-6.13;69.24;96463.19;1763158;80;27444;-81
2021/12/28 08:15:08;;;;;;;314.98;143.80;;;;;;;-6.03;69.26;96456.17;1763103;80;25683;-82
2021/12/28 08:17:36;;;;;;;327.52;143.57;;;;;;;-5.92;69.28;96456.10;1762959;80;25745;-82
2021/12/28 08:20:06;;;;;;;335.10;147.20;;;;;;;-5.82;69.28;96454.30;1763161;80;26433;-82
2021/12/28 08:22:33;;;;;;;360.70;154.78;;;;;;;-5.70;69.31;96457.65;1763215;80;25716;-82
2021/12/28 08:24:59;;;;;;;336.10;146.82;;;;;;;-5.55;69.41;96452.33;1763261;80;27513;-82
2021/12/28 08:27:27;;;;;;;330.92;147.78;;;;;;;-5.46;69.25;96449.75;1769498;79;25698;-82
2021/12/28 08:29:53;;;;;;;338.40;148.38;;;;;;;-5.31;69.36;96453.30;1790746;79;25779;-82
2021/12/28 08:32:20;;;;;;;270.07;119.20;;;;;;;-5.19;69.25;96452.20;1783443;79;26318;-82
2021/12/28 08:34:47;;;;;;;263.23;115.05;;;;;;;-5.14;69.15;96447.34;1741183;81;25419;-82
2021/12/28 08:37:14;;;;;;;256.70;113.92;;;;;;;-5.07;69.27;96445.80;1794490;79;28147;-83
2021/12/28 08:39:40;;;;;;;272.20;120.15;;;;;;;-4.90;69.28;96445.12;1796937;79;25684;-79
2021/12/28 08:42:08;;;;;;;283.32;129.32;;;;;;;-4.78;69.19;96448.44;1800420;79;25730;-80
2021/12/28 08:44:35;;;;;;;303.65;137.28;;;;;;;-4.66;69.11;96440.73;1800193;78;25691;-81
2021/12/28 08:47:02;;;;;;;307.98;139.92;;;;;;;-4.57;69.08;96437.73;1800361;79;25656;-80
2021/12/28 08:49:28;;;;;;;322.50;146.02;;;;;;;-4.45;69.11;96428.20;1800237;79;28127;-81
2021/12/28 08:51:55;;;;;;;324.07;147.43;;;;;;;-4.34;68.98;96425.87;1799920;79;25642;-80
2021/12/28 08:54:22;;;;;;;312.05;147.43;;;;;;;-4.24;68.92;96429.34;1788261;79;25750;-81
2021/12/28 08:56:50;;;;;;;320.85;151.47;;;;;;;-4.03;68.96;96422.53;1768805;80;25713;-81
2021/12/28 08:59:18;;;;;;;316.25;148.78;;;;;;;-3.74;68.99;96411.33;1768962;80;25627;-81
2021/12/28 09:01:45;;;;;;;298.80;144.30;;;;;;;-3.48;68.70;96414.09;1768816;80;26889;-81
2021/12/28 09:04:12;;;;;;;296.27;141.62;;;;;;;-3.28;68.44;96417.45;1768731;80;25993;-80
2021/12/28 09:06:38;;;;;;;303.37;147.15;;;;;;;-3.18;68.01;96404.17;1768827;80;26359;-81
2021/12/28 09:09:05;;;;;;;299.90;145.72;;;;;;;-3.17;67.91;96403.20;1768846;80;25683;-81
2021/12/28 09:11:32;;;;;;;310.45;149.25;;;;;;;-3.06;68.09;96402.97;1768921;80;25228;-81
2021/12/28 09:13:59;;;;;;;314.63;151.68;;;;;;;-2.91;68.11;96397.00;1768575;80;28327;-81
2021/12/28 09:16:25;;;;;;;300.45;152.62;;;;;;;-2.77;68.08;96400.88;1782021;78;25683;-81
2021/12/28 09:18:52;;;;;;;312.23;153.45;;;;;;;-2.63;67.97;96397.69;1781833;79;25723;-81
2021/12/28 09:21:19;;;;;;;300.35;148.87;;;;;;;-2.49;67.89;96396.30;1769146;79;25825;-81
2021/12/28 09:23:45;;;;;;;303.10;148.68;;;;;;;-2.31;67.77;96391.80;1776369;79;25733;-81
2021/12/28 09:26:12;;;;;;;294.75;146.00;;;;;;;-2.20;67.62;96390.70;1800573;79;28011;-80
2021/12/28 09:28:38;;;;;;;326.45;157.67;;;;;;;-2.06;67.52;96398.05;1800306;79;25944;-80
2021/12/28 09:31:05;;;;;;;330.60;164.67;;;;;;;-1.92;67.48;96398.76;1800388;79;25736;-80
2021/12/28 09:33:32;;;;;;;322.05;158.68;;;;;;;-1.82;67.05;96392.88;1799655;79;25677;-81
2021/12/28 09:36:00;;;;;;;316.20;152.05;;;;;;;-1.72;66.97;96391.91;1799733;79;25673;-80
2021/12/28 09:38:27;;;;;;;291.75;144.32;;;;;;;-1.58;67.05;96393.95;1800154;79;27596;-80
2021/12/28 09:40:54;;;;;;;281.68;138.35;;;;;;;-1.43;67.07;96398.93;1800071;79;25870;-80
2021/12/28 09:43:21;;;;;;;265.15;124.10;;;;;;;-1.24;67.02;96411.07;1800411;79;25738;-81
2021/12/28 09:45:48;;;;;;;241.02;118.13;;;;;;;-1.14;66.62;96405.13;1800445;79;25738;-80
2021/12/28 09:48:14;;;;;;;326.67;147.75;;;;;;;-1.00;66.61;96389.09;1800529;79;26715;-80
2021/12/28 09:50:42;;;;;;;295.18;143.87;;;;;;;-0.88;66.69;96378.00;1800408;79;27338;-80
2021/12/28 09:53:12;;;;;;;284.73;138.15;;;;;;;-0.78;66.68;96375.19;1799071;78;25720;-80
2021/12/28 09:55:39;;;;;;;308.73;146.10;;;;;;;-0.57;66.82;96372.02;1800385;79;25744;-80
2021/12/28 09:58:05;;;;;;;297.77;143.43;;;;;;;-0.28;66.75;96364.84;1800380;79;26514;-80
2021/12/28 10:00:33;;;;;;;297.60;144.28;;;;;;;0.01;66.48;96362.42;1800142;79;43643;-80
2021/12/28 10:02:59;;;;;;;295.93;144.28;;;;;;;0.21;66.33;96350.92;1800193;79;28237;-80
2021/12/28 10:05:27;;;;;;;262.23;127.72;;;;;;;0.43;66.18;96356.78;1800353;79;25886;-81
2021/12/28 10:07:58;;;;;;;237.27;118.72;;;;;;;0.64;65.91;96354.34;1800389;79;25724;-81
2021/12/28 10:10:38;;;;;;;188.62;93.75;;;;;;;0.80;65.92;96356.07;1800160;79;25898;-81
2021/12/28 10:13:09;;;;;;;189.65;93.22;;;;;;;0.95;66.01;96346.34;1796756;79;25672;-81
2021/12/28 10:15:40;;;;;;;192.43;97.65;;;;;;;1.21;66.01;96353.13;1792146;79;28357;-82
2021/12/28 10:18:12;;;;;;;213.25;107.80;;;;;;;1.46;65.80;96353.20;1750911;79;25918;-82
2021/12/28 10:20:47;;;;;;;;;;;;;;;1.60;65.59;96335.13;1711221;82;25892;-81
2021/12/28 10:23:22;;;;;;;274.60;131.93;;;;;;;1.78;65.31;96332.95;1730713;82;25679;-81
2021/12/28 10:25:56;;;;;;;271.62;132.30;;;;;;;1.96;65.00;96324.59;1736444;81;25700;-81
2021/12/28 10:28:27;;;;;;;219.55;105.83;;;;;;;2.19;65.10;96316.49;1700587;82;28185;-82
2021/12/28 10:31:05;;;;;;;175.70;84.03;;;;;;;2.50;64.91;96314.94;1700435;82;25766;-82
2021/12/28 10:33:36;;;;;;;132.18;65.45;;;;;;;2.80;64.64;96320.48;1732432;81;25672;-83
2021/12/28 10:36:08;;;;;;;120.33;62.60;;;;;;;3.11;64.44;96317.52;1700548;82;25670;-84
2021/12/28 10:38:39;;;;;;;136.50;69.77;;;;;;;3.39;64.17;96312.70;1705950;82;26385;-84
2021/12/28 10:41:16;;;;;;;121.72;62.50;;;;;;;3.68;63.80;96317.05;1734171;80;27603;-83
2021/12/28 10:43:47;;;;;;;114.52;58.35;;;;;;;3.90;63.59;96310.10;1741822;81;25775;-83
2021/12/28 10:46:19;;;;;;;117.37;58.63;;;;;;;4.16;63.48;96304.59;1749076;80;25773;-83
2021/12/28 10:48:50;;;;;;;99.13;51.18;;;;;;;4.41;63.22;96300.91;1744739;80;25682;-83
2021/12/28 10:51:42;;;;;;;100.25;50.58;;;;;;;4.61;62.85;96297.27;1749004;80;31218;-83
2021/12/28 10:54:16;;;;;;;88.17;46.77;;;;;;;4.76;62.39;96289.61;1747272;82;28207;-83
2021/12/28 10:56:53;;;;;;;95.03;49.45;;;;;;;5.02;62.32;96289.66;1715211;81;25678;-83
2021/12/28 10:59:32;;;;;;;102.58;51.53;;;;;;;5.24;62.16;96283.09;1727700;80;26403;-83
2021/12/28 11:01:58;;;;;;;102.95;51.60;;;;;;;5.56;61.93;96274.73;1724897;82;26450;-83
2021/12/28 11:04:33;;;;;;;97.10;51.23;;;;;;;5.77;61.37;96267.01;1724885;82;26532;-84
2021/12/28 11:07:01;;;;;;;92.70;51.15;;;;;;;5.92;61.01;96265.44;1718443;83;27609;-84
2021/12/28 11:09:28;;;;;;;97.67;52.40;;;;;;;6.06;60.80;96266.54;1724550;82;25705;-83
2021/12/28 11:11:56;;;;;;;104.83;54.83;;;;;;;6.21;60.54;96256.09;1724950;82;25669;-83
2021/12/28 11:14:27;;;;;;;104.10;53.98;;;;;;;6.31;60.30;96251.09;1718501;82;25713;-82